sensor_id;sensor_type;location;lat;lon;timestamp;P1;durP1;ratioP1;P2;durP2;ratioP2
30647;SDS011;17683;53.360;9.736;2023-03-24T00:00:57;7.15;;;3.20;;
30647;SDS011;17683;53.360;9.736;2023-03-24T00:03:24;10.85;;;3.45;;
30647;SDS011;17683;53.360;9.736;2023-03-24T00:05:54;6.43;;;2.75;;
30647;SDS011;17683;53.360;9.736;2023-03-24T00:08:30;3.92;;;2.88;;
30647;SDS011;17683;53.360;9.736;2023-03-24T00:11:07;5.65;;;3.00;;
30647;SDS011;17683;53.360;9.736;2023-03-24T00:13:35;6.80;;;2.75;;
30647;SDS011;17683;53.360;9.736;2023-03-24T00:16:06;5.75;;;3.30;;
30647;SDS011;17683;53.360;9.736;2023-03-24T00:18:34;9.88;;;3.63;;
30647;SDS011;17683;53.360;9.736;2023-03-24T00:21:01;4.95;;;2.50;;
30647;SDS011;17683;53.360;9.736;2023-03-24T00:23:28;6.57;;;3.20;;
30647;SDS011;17683;53.360;9.736;2023-03-24T00:26:08;5.07;;;2.63;;
30647;SDS011;17683;53.360;9.736;2023-03-24T00:28:39;11.93;;;3.13;;
30647;SDS011;17683;53.360;9.736;2023-03-24T00:31:13;6.13;;;3.72;;
30647;SDS011;17683;53.360;9.736;2023-03-24T00:33:41;6.90;;;3.22;;
30647;SDS011;17683;53.360;9.736;2023-03-24T00:36:09;8.15;;;3.80;;
30647;SDS011;17683;53.360;9.736;2023-03-24T00:38:36;5.53;;;2.83;;
30647;SDS011;17683;53.360;9.736;2023-03-24T00:41:03;5.60;;;2.88;;
30647;SDS011;17683;53.360;9.736;2023-03-24T00:43:31;7.10;;;3.40;;
30647;SDS011;17683;53.360;9.736;2023-03-24T00:45:59;7.45;;;3.15;;
30647;SDS011;17683;53.360;9.736;2023-03-24T00:48:26;6.30;;;2.97;;
30647;SDS011;17683;53.360;9.736;2023-03-24T00:50:53;6.60;;;3.45;;
30647;SDS011;17683;53.360;9.736;2023-03-24T00:53:19;8.02;;;3.33;;
30647;SDS011;17683;53.360;9.736;2023-03-24T00:55:47;8.80;;;3.00;;
30647;SDS011;17683;53.360;9.736;2023-03-24T00:58:14;9.05;;;3.45;;
30647;SDS011;17683;53.360;9.736;2023-03-24T01:00:44;10.10;;;3.40;;
30647;SDS011;17683;53.360;9.736;2023-03-24T01:03:11;6.35;;;2.85;;
30647;SDS011;17683;53.360;9.736;2023-03-24T01:05:37;7.40;;;3.28;;
30647;SDS011;17683;53.360;9.736;2023-03-24T01:08:05;9.10;;;3.40;;
30647;SDS011;17683;53.360;9.736;2023-03-24T01:10:33;9.10;;;3.60;;
30647;SDS011;17683;53.360;9.736;2023-03-24T01:13:14;9.60;;;3.05;;
30647;SDS011;17683;53.360;9.736;2023-03-24T01:15:41;7.25;;;2.70;;
30647;SDS011;17683;53.360;9.736;2023-03-24T01:18:09;7.78;;;3.38;;
30647;SDS011;17683;53.360;9.736;2023-03-24T01:20:37;6.13;;;2.58;;
30647;SDS011;17683;53.360;9.736;2023-03-24T01:23:05;6.35;;;3.03;;
30647;SDS011;17683;53.360;9.736;2023-03-24T01:25:32;8.05;;;3.80;;
30647;SDS011;17683;53.360;9.736;2023-03-24T01:28:04;4.97;;;2.75;;
30647;SDS011;17683;53.360;9.736;2023-03-24T01:30:30;5.70;;;2.90;;
30647;SDS011;17683;53.360;9.736;2023-03-24T01:32:55;9.23;;;3.20;;
30647;SDS011;17683;53.360;9.736;2023-03-24T01:35:22;6.50;;;2.90;;
30647;SDS011;17683;53.360;9.736;2023-03-24T01:37:52;8.30;;;3.10;;
30647;SDS011;17683;53.360;9.736;2023-03-24T01:40:19;8.95;;;3.17;;
30647;SDS011;17683;53.360;9.736;2023-03-24T01:42:47;10.75;;;3.42;;
30647;SDS011;17683;53.360;9.736;2023-03-24T01:48:11;7.90;;;3.45;;
30647;SDS011;17683;53.360;9.736;2023-03-24T01:50:37;7.28;;;3.30;;
30647;SDS011;17683;53.360;9.736;2023-03-24T01:53:04;8.18;;;3.58;;
30647;SDS011;17683;53.360;9.736;2023-03-24T01:55:31;8.18;;;3.10;;
30647;SDS011;17683;53.360;9.736;2023-03-24T01:57:58;6.90;;;3.08;;
30647;SDS011;17683;53.360;9.736;2023-03-24T02:00:25;5.65;;;3.13;;
30647;SDS011;17683;53.360;9.736;2023-03-24T02:02:53;8.30;;;3.20;;
30647;SDS011;17683;53.360;9.736;2023-03-24T02:05:25;10.50;;;3.38;;
30647;SDS011;17683;53.360;9.736;2023-03-24T02:10:39;7.10;;;3.67;;
30647;SDS011;17683;53.360;9.736;2023-03-24T02:13:05;8.48;;;3.10;;
30647;SDS011;17683;53.360;9.736;2023-03-24T02:15:32;9.00;;;2.88;;
30647;SDS011;17683;53.360;9.736;2023-03-24T02:18:13;11.68;;;3.80;;
30647;SDS011;17683;53.360;9.736;2023-03-24T02:35:07;6.75;;;3.25;;
30647;SDS011;17683;53.360;9.736;2023-03-24T02:41:34;9.80;;;3.53;;
30647;SDS011;17683;53.360;9.736;2023-03-24T02:46:32;6.53;;;3.00;;
30647;SDS011;17683;53.360;9.736;2023-03-24T02:52:03;6.55;;;3.13;;
30647;SDS011;17683;53.360;9.736;2023-03-24T02:54:44;9.95;;;3.58;;
30647;SDS011;17683;53.360;9.736;2023-03-24T02:57:18;5.93;;;3.00;;
30647;SDS011;17683;53.360;9.736;2023-03-24T03:00:05;8.00;;;3.78;;
30647;SDS011;17683;53.360;9.736;2023-03-24T03:02:38;6.25;;;3.60;;
30647;SDS011;17683;53.360;9.736;2023-03-24T03:05:21;7.65;;;3.95;;
30647;SDS011;17683;53.360;9.736;2023-03-24T03:07:54;8.02;;;3.78;;
30647;SDS011;17683;53.360;9.736;2023-03-24T03:10:23;7.28;;;3.58;;
30647;SDS011;17683;53.360;9.736;2023-03-24T03:12:53;8.65;;;3.22;;
30647;SDS011;17683;53.360;9.736;2023-03-24T03:15:23;6.07;;;3.65;;
30647;SDS011;17683;53.360;9.736;2023-03-24T03:17:52;5.30;;;3.60;;
30647;SDS011;17683;53.360;9.736;2023-03-24T03:20:43;7.88;;;3.25;;
30647;SDS011;17683;53.360;9.736;2023-03-24T03:23:14;8.57;;;3.13;;
30647;SDS011;17683;53.360;9.736;2023-03-24T03:25:45;9.40;;;3.47;;
30647;SDS011;17683;53.360;9.736;2023-03-24T03:28:17;7.53;;;3.65;;
30647;SDS011;17683;53.360;9.736;2023-03-24T03:30:54;7.90;;;3.45;;
30647;SDS011;17683;53.360;9.736;2023-03-24T03:33:34;7.88;;;4.57;;
30647;SDS011;17683;53.360;9.736;2023-03-24T03:41:31;8.82;;;4.28;;
30647;SDS011;17683;53.360;9.736;2023-03-24T03:43:56;5.20;;;3.35;;
30647;SDS011;17683;53.360;9.736;2023-03-24T03:46:22;8.55;;;3.95;;
30647;SDS011;17683;53.360;9.736;2023-03-24T03:48:48;7.43;;;3.55;;
30647;SDS011;17683;53.360;9.736;2023-03-24T03:51:15;7.50;;;4.05;;
30647;SDS011;17683;53.360;9.736;2023-03-24T03:53:52;8.05;;;3.42;;
30647;SDS011;17683;53.360;9.736;2023-03-24T03:56:23;5.75;;;3.50;;
30647;SDS011;17683;53.360;9.736;2023-03-24T03:58:51;6.50;;;3.50;;
30647;SDS011;17683;53.360;9.736;2023-03-24T04:01:19;8.43;;;3.40;;
30647;SDS011;17683;53.360;9.736;2023-03-24T04:09:29;9.07;;;4.30;;
30647;SDS011;17683;53.360;9.736;2023-03-24T04:17:34;5.85;;;3.78;;
30647;SDS011;17683;53.360;9.736;2023-03-24T04:20:11;7.93;;;3.60;;
30647;SDS011;17683;53.360;9.736;2023-03-24T04:25:28;7.35;;;4.75;;
30647;SDS011;17683;53.360;9.736;2023-03-24T04:33:18;6.30;;;4.35;;
30647;SDS011;17683;53.360;9.736;2023-03-24T04:36:13;5.03;;;3.20;;
30647;SDS011;17683;53.360;9.736;2023-03-24T04:38:44;7.60;;;3.85;;
30647;SDS011;17683;53.360;9.736;2023-03-24T04:41:14;7.45;;;4.07;;
30647;SDS011;17683;53.360;9.736;2023-03-24T04:43:41;6.45;;;4.20;;
30647;SDS011;17683;53.360;9.736;2023-03-24T04:46:09;4.95;;;3.80;;
30647;SDS011;17683;53.360;9.736;2023-03-24T04:48:35;5.72;;;3.70;;
30647;SDS011;17683;53.360;9.736;2023-03-24T04:51:01;5.63;;;3.85;;
30647;SDS011;17683;53.360;9.736;2023-03-24T04:53:28;7.88;;;3.55;;
30647;SDS011;17683;53.360;9.736;2023-03-24T04:56:06;6.88;;;4.30;;
30647;SDS011;17683;53.360;9.736;2023-03-24T04:58:51;5.85;;;4.13;;
30647;SDS011;17683;53.360;9.736;2023-03-24T05:01:17;4.38;;;3.65;;
30647;SDS011;17683;53.360;9.736;2023-03-24T05:03:45;6.93;;;4.03;;
30647;SDS011;17683;53.360;9.736;2023-03-24T05:06:11;6.32;;;4.00;;
30647;SDS011;17683;53.360;9.736;2023-03-24T05:08:37;4.43;;;3.53;;
30647;SDS011;17683;53.360;9.736;2023-03-24T05:11:04;9.55;;;4.43;;
30647;SDS011;17683;53.360;9.736;2023-03-24T05:13:30;7.40;;;3.80;;
30647;SDS011;17683;53.360;9.736;2023-03-24T05:15:56;5.70;;;3.53;;
30647;SDS011;17683;53.360;9.736;2023-03-24T05:18:22;5.53;;;3.97;;
30647;SDS011;17683;53.360;9.736;2023-03-24T05:20:48;4.47;;;3.65;;
30647;SDS011;17683;53.360;9.736;2023-03-24T05:23:14;5.47;;;3.70;;
30647;SDS011;17683;53.360;9.736;2023-03-24T05:25:40;6.05;;;3.50;;
30647;SDS011;17683;53.360;9.736;2023-03-24T05:28:06;6.57;;;3.83;;
30647;SDS011;17683;53.360;9.736;2023-03-24T05:30:31;6.38;;;3.83;;
30647;SDS011;17683;53.360;9.736;2023-03-24T05:32:58;5.93;;;3.70;;
30647;SDS011;17683;53.360;9.736;2023-03-24T05:35:23;7.38;;;4.35;;
30647;SDS011;17683;53.360;9.736;2023-03-24T05:37:49;5.20;;;3.35;;
30647;SDS011;17683;53.360;9.736;2023-03-24T05:40:15;6.40;;;3.08;;
30647;SDS011;17683;53.360;9.736;2023-03-24T05:42:41;4.13;;;3.20;;
30647;SDS011;17683;53.360;9.736;2023-03-24T05:45:08;4.72;;;3.65;;
30647;SDS011;17683;53.360;9.736;2023-03-24T05:47:35;4.00;;;3.45;;
30647;SDS011;17683;53.360;9.736;2023-03-24T05:50:02;3.60;;;3.20;;
30647;SDS011;17683;53.360;9.736;2023-03-24T05:52:28;7.25;;;3.63;;
30647;SDS011;17683;53.360;9.736;2023-03-24T05:54:55;4.72;;;3.58;;
30647;SDS011;17683;53.360;9.736;2023-03-24T05:57:22;6.72;;;3.70;;
30647;SDS011;17683;53.360;9.736;2023-03-24T05:59:48;4.22;;;3.25;;
30647;SDS011;17683;53.360;9.736;2023-03-24T06:02:13;5.18;;;3.22;;
30647;SDS011;17683;53.360;9.736;2023-03-24T06:04:39;4.60;;;3.30;;
30647;SDS011;17683;53.360;9.736;2023-03-24T06:07:10;4.53;;;3.88;;
30647;SDS011;17683;53.360;9.736;2023-03-24T06:09:36;8.15;;;3.47;;
30647;SDS011;17683;53.360;9.736;2023-03-24T06:12:06;5.40;;;3.00;;
30647;SDS011;17683;53.360;9.736;2023-03-24T06:14:33;6.38;;;3.42;;
30647;SDS011;17683;53.360;9.736;2023-03-24T06:16:58;5.85;;;3.65;;
30647;SDS011;17683;53.360;9.736;2023-03-24T06:19:25;5.68;;;3.65;;
30647;SDS011;17683;53.360;9.736;2023-03-24T06:21:54;4.07;;;3.15;;
30647;SDS011;17683;53.360;9.736;2023-03-24T06:24:24;3.85;;;3.20;;
30647;SDS011;17683;53.360;9.736;2023-03-24T06:26:51;3.95;;;3.35;;
30647;SDS011;17683;53.360;9.736;2023-03-24T06:29:17;4.32;;;3.10;;
30647;SDS011;17683;53.360;9.736;2023-03-24T06:31:43;4.78;;;4.07;;
30647;SDS011;17683;53.360;9.736;2023-03-24T06:34:09;5.75;;;3.50;;
30647;SDS011;17683;53.360;9.736;2023-03-24T06:36:35;5.25;;;3.60;;
30647;SDS011;17683;53.360;9.736;2023-03-24T06:39:01;6.47;;;3.33;;
30647;SDS011;17683;53.360;9.736;2023-03-24T06:41:29;4.45;;;3.75;;
30647;SDS011;17683;53.360;9.736;2023-03-24T06:43:55;4.78;;;3.20;;
30647;SDS011;17683;53.360;9.736;2023-03-24T06:46:22;7.28;;;4.05;;
30647;SDS011;17683;53.360;9.736;2023-03-24T06:48:47;5.05;;;3.33;;
30647;SDS011;17683;53.360;9.736;2023-03-24T06:51:13;6.93;;;4.05;;
30647;SDS011;17683;53.360;9.736;2023-03-24T06:53:39;7.05;;;3.92;;
30647;SDS011;17683;53.360;9.736;2023-03-24T06:56:05;5.47;;;3.80;;
30647;SDS011;17683;53.360;9.736;2023-03-24T06:58:32;4.38;;;3.78;;
30647;SDS011;17683;53.360;9.736;2023-03-24T07:01:01;5.00;;;3.97;;
30647;SDS011;17683;53.360;9.736;2023-03-24T07:03:26;4.57;;;3.20;;
30647;SDS011;17683;53.360;9.736;2023-03-24T07:05:52;2.97;;;2.67;;
30647;SDS011;17683;53.360;9.736;2023-03-24T07:08:17;3.35;;;2.20;;
30647;SDS011;17683;53.360;9.736;2023-03-24T07:10:43;2.20;;;2.00;;
30647;SDS011;17683;53.360;9.736;2023-03-24T07:13:09;2.55;;;1.80;;
30647;SDS011;17683;53.360;9.736;2023-03-24T07:15:35;3.30;;;2.10;;
30647;SDS011;17683;53.360;9.736;2023-03-24T07:18:01;2.78;;;1.73;;
30647;SDS011;17683;53.360;9.736;2023-03-24T07:20:27;5.13;;;2.13;;
30647;SDS011;17683;53.360;9.736;2023-03-24T07:22:56;3.38;;;1.75;;
30647;SDS011;17683;53.360;9.736;2023-03-24T07:25:22;5.25;;;2.35;;
30647;SDS011;17683;53.360;9.736;2023-03-24T07:27:51;4.95;;;2.10;;
30647;SDS011;17683;53.360;9.736;2023-03-24T07:30:19;7.93;;;2.55;;
30647;SDS011;17683;53.360;9.736;2023-03-24T07:32:45;7.38;;;1.65;;
30647;SDS011;17683;53.360;9.736;2023-03-24T07:35:13;3.70;;;1.60;;
30647;SDS011;17683;53.360;9.736;2023-03-24T07:37:40;4.32;;;1.58;;
30647;SDS011;17683;53.360;9.736;2023-03-24T07:40:07;2.83;;;1.63;;
30647;SDS011;17683;53.360;9.736;2023-03-24T07:42:37;7.55;;;2.25;;
30647;SDS011;17683;53.360;9.736;2023-03-24T07:45:06;5.15;;;1.90;;
30647;SDS011;17683;53.360;9.736;2023-03-24T07:47:36;6.80;;;1.73;;
30647;SDS011;17683;53.360;9.736;2023-03-24T07:50:03;4.20;;;1.70;;
30647;SDS011;17683;53.360;9.736;2023-03-24T07:52:34;4.57;;;1.77;;
30647;SDS011;17683;53.360;9.736;2023-03-24T07:55:01;3.72;;;1.40;;
30647;SDS011;17683;53.360;9.736;2023-03-24T07:57:26;5.53;;;1.88;;
30647;SDS011;17683;53.360;9.736;2023-03-24T07:59:52;2.35;;;1.55;;
30647;SDS011;17683;53.360;9.736;2023-03-24T08:02:18;7.85;;;2.15;;
30647;SDS011;17683;53.360;9.736;2023-03-24T08:04:44;4.90;;;1.38;;
30647;SDS011;17683;53.360;9.736;2023-03-24T08:07:10;3.75;;;1.25;;
30647;SDS011;17683;53.360;9.736;2023-03-24T08:09:39;5.65;;;1.70;;
30647;SDS011;17683;53.360;9.736;2023-03-24T08:12:05;7.53;;;1.80;;
30647;SDS011;17683;53.360;9.736;2023-03-24T08:14:31;5.50;;;1.50;;
30647;SDS011;17683;53.360;9.736;2023-03-24T08:16:57;6.78;;;2.42;;
30647;SDS011;17683;53.360;9.736;2023-03-24T08:19:23;4.72;;;1.52;;
30647;SDS011;17683;53.360;9.736;2023-03-24T08:21:48;3.63;;;1.60;;
30647;SDS011;17683;53.360;9.736;2023-03-24T08:24:14;5.30;;;1.52;;
30647;SDS011;17683;53.360;9.736;2023-03-24T08:26:41;3.72;;;1.60;;
30647;SDS011;17683;53.360;9.736;2023-03-24T08:29:07;6.82;;;1.70;;
30647;SDS011;17683;53.360;9.736;2023-03-24T08:31:33;3.25;;;1.13;;
30647;SDS011;17683;53.360;9.736;2023-03-24T08:34:00;7.85;;;1.90;;
30647;SDS011;17683;53.360;9.736;2023-03-24T08:36:28;6.13;;;1.50;;
30647;SDS011;17683;53.360;9.736;2023-03-24T08:38:54;4.35;;;2.03;;
30647;SDS011;17683;53.360;9.736;2023-03-24T08:41:21;5.93;;;1.77;;
30647;SDS011;17683;53.360;9.736;2023-03-24T08:43:54;5.88;;;1.90;;
30647;SDS011;17683;53.360;9.736;2023-03-24T08:46:20;4.68;;;1.60;;
30647;SDS011;17683;53.360;9.736;2023-03-24T08:48:46;7.10;;;1.80;;
30647;SDS011;17683;53.360;9.736;2023-03-24T08:51:13;11.45;;;2.47;;
30647;SDS011;17683;53.360;9.736;2023-03-24T08:53:40;10.45;;;2.50;;
30647;SDS011;17683;53.360;9.736;2023-03-24T08:56:06;9.57;;;2.13;;
30647;SDS011;17683;53.360;9.736;2023-03-24T08:58:32;7.20;;;1.88;;
30647;SDS011;17683;53.360;9.736;2023-03-24T09:00:58;10.20;;;3.03;;
30647;SDS011;17683;53.360;9.736;2023-03-24T09:03:23;7.72;;;2.00;;
30647;SDS011;17683;53.360;9.736;2023-03-24T09:05:53;10.45;;;2.33;;
30647;SDS011;17683;53.360;9.736;2023-03-24T09:08:21;7.70;;;1.83;;
30647;SDS011;17683;53.360;9.736;2023-03-24T09:10:47;17.08;;;3.85;;
30647;SDS011;17683;53.360;9.736;2023-03-24T09:13:14;15.27;;;2.65;;
30647;SDS011;17683;53.360;9.736;2023-03-24T09:15:44;8.55;;;2.60;;
30647;SDS011;17683;53.360;9.736;2023-03-24T09:18:11;13.38;;;3.38;;
30647;SDS011;17683;53.360;9.736;2023-03-24T09:20:37;10.32;;;2.25;;
30647;SDS011;17683;53.360;9.736;2023-03-24T09:23:03;10.15;;;2.33;;
30647;SDS011;17683;53.360;9.736;2023-03-24T09:25:28;8.43;;;2.35;;
30647;SDS011;17683;53.360;9.736;2023-03-24T09:27:54;9.63;;;2.75;;
30647;SDS011;17683;53.360;9.736;2023-03-24T09:30:20;9.95;;;2.00;;
30647;SDS011;17683;53.360;9.736;2023-03-24T09:32:46;7.68;;;1.80;;
30647;SDS011;17683;53.360;9.736;2023-03-24T09:35:12;6.70;;;1.90;;
30647;SDS011;17683;53.360;9.736;2023-03-24T09:37:39;10.15;;;2.05;;
30647;SDS011;17683;53.360;9.736;2023-03-24T09:40:07;9.70;;;2.05;;
30647;SDS011;17683;53.360;9.736;2023-03-24T09:42:39;8.20;;;2.55;;
30647;SDS011;17683;53.360;9.736;2023-03-24T09:45:16;10.02;;;2.80;;
30647;SDS011;17683;53.360;9.736;2023-03-24T09:47:47;9.73;;;2.78;;
30647;SDS011;17683;53.360;9.736;2023-03-24T09:50:25;9.18;;;2.25;;
30647;SDS011;17683;53.360;9.736;2023-03-24T09:52:55;8.75;;;2.17;;
30647;SDS011;17683;53.360;9.736;2023-03-24T09:55:27;8.15;;;2.55;;
30647;SDS011;17683;53.360;9.736;2023-03-24T09:57:54;11.55;;;2.78;;
30647;SDS011;17683;53.360;9.736;2023-03-24T10:00:27;10.80;;;2.80;;
30647;SDS011;17683;53.360;9.736;2023-03-24T10:02:58;5.32;;;1.95;;
30647;SDS011;17683;53.360;9.736;2023-03-24T10:08:08;11.00;;;2.90;;
30647;SDS011;17683;53.360;9.736;2023-03-24T10:14:06;10.55;;;2.17;;
30647;SDS011;17683;53.360;9.736;2023-03-24T10:18:51;8.48;;;2.65;;
30647;SDS011;17683;53.360;9.736;2023-03-24T10:21:36;15.15;;;3.17;;
30647;SDS011;17683;53.360;9.736;2023-03-24T10:24:17;12.60;;;2.40;;
30647;SDS011;17683;53.360;9.736;2023-03-24T10:29:41;11.25;;;3.05;;
30647;SDS011;17683;53.360;9.736;2023-03-24T10:34:51;12.27;;;2.65;;
30647;SDS011;17683;53.360;9.736;2023-03-24T10:37:23;7.80;;;2.08;;
30647;SDS011;17683;53.360;9.736;2023-03-24T10:39:49;8.85;;;2.30;;
30647;SDS011;17683;53.360;9.736;2023-03-24T10:42:22;10.40;;;2.78;;
30647;SDS011;17683;53.360;9.736;2023-03-24T10:44:50;10.60;;;2.67;;
30647;SDS011;17683;53.360;9.736;2023-03-24T10:47:26;11.75;;;2.40;;
30647;SDS011;17683;53.360;9.736;2023-03-24T10:49:58;7.40;;;2.10;;
30647;SDS011;17683;53.360;9.736;2023-03-24T10:52:25;8.90;;;2.80;;
30647;SDS011;17683;53.360;9.736;2023-03-24T10:54:54;11.80;;;2.80;;
30647;SDS011;17683;53.360;9.736;2023-03-24T10:57:22;6.65;;;2.20;;
30647;SDS011;17683;53.360;9.736;2023-03-24T10:59:53;8.07;;;2.72;;
30647;SDS011;17683;53.360;9.736;2023-03-24T11:02:28;15.00;;;2.63;;
30647;SDS011;17683;53.360;9.736;2023-03-24T11:07:43;10.30;;;2.63;;
30647;SDS011;17683;53.360;9.736;2023-03-24T11:10:14;12.77;;;2.72;;
30647;SDS011;17683;53.360;9.736;2023-03-24T11:17:58;8.00;;;2.10;;
30647;SDS011;17683;53.360;9.736;2023-03-24T11:20:29;16.17;;;3.33;;
30647;SDS011;17683;53.360;9.736;2023-03-24T11:26:02;13.68;;;2.05;;
30647;SDS011;17683;53.360;9.736;2023-03-24T11:28:46;15.38;;;3.20;;
30647;SDS011;17683;53.360;9.736;2023-03-24T11:31:38;8.10;;;2.08;;
30647;SDS011;17683;53.360;9.736;2023-03-24T11:34:15;15.63;;;3.10;;
30647;SDS011;17683;53.360;9.736;2023-03-24T11:36:55;14.57;;;3.35;;
30647;SDS011;17683;53.360;9.736;2023-03-24T11:47:21;10.18;;;2.42;;
30647;SDS011;17683;53.360;9.736;2023-03-24T11:55:21;11.68;;;2.92;;
30647;SDS011;17683;53.360;9.736;2023-03-24T11:57:55;12.13;;;2.67;;
30647;SDS011;17683;53.360;9.736;2023-03-24T12:01:01;8.65;;;2.13;;
30647;SDS011;17683;53.360;9.736;2023-03-24T12:06:44;7.68;;;1.83;;
30647;SDS011;17683;53.360;9.736;2023-03-24T12:20:42;13.25;;;2.80;;
30647;SDS011;17683;53.360;9.736;2023-03-24T12:24:13;14.48;;;3.20;;
30647;SDS011;17683;53.360;9.736;2023-03-24T12:26:37;10.93;;;2.42;;
30647;SDS011;17683;53.360;9.736;2023-03-24T12:32:07;11.00;;;2.95;;
30647;SDS011;17683;53.360;9.736;2023-03-24T12:35:03;8.18;;;2.63;;
30647;SDS011;17683;53.360;9.736;2023-03-24T12:44:15;12.50;;;2.83;;
30647;SDS011;17683;53.360;9.736;2023-03-24T12:52:24;7.63;;;2.60;;
30647;SDS011;17683;53.360;9.736;2023-03-24T12:54:46;9.43;;;2.22;;
30647;SDS011;17683;53.360;9.736;2023-03-24T12:57:29;9.25;;;2.40;;
30647;SDS011;17683;53.360;9.736;2023-03-24T13:00:03;11.23;;;3.22;;
30647;SDS011;17683;53.360;9.736;2023-03-24T13:02:45;10.40;;;2.60;;
30647;SDS011;17683;53.360;9.736;2023-03-24T13:05:42;7.75;;;1.98;;
30647;SDS011;17683;53.360;9.736;2023-03-24T13:08:15;8.93;;;1.95;;
30647;SDS011;17683;53.360;9.736;2023-03-24T13:10:47;16.60;;;2.53;;
30647;SDS011;17683;53.360;9.736;2023-03-24T13:13:21;10.50;;;2.13;;
30647;SDS011;17683;53.360;9.736;2023-03-24T13:16:10;5.32;;;2.17;;
30647;SDS011;17683;53.360;9.736;2023-03-24T13:18:45;9.57;;;2.72;;
30647;SDS011;17683;53.360;9.736;2023-03-24T13:21:23;13.23;;;2.22;;
30647;SDS011;17683;53.360;9.736;2023-03-24T13:24:01;9.00;;;2.15;;
30647;SDS011;17683;53.360;9.736;2023-03-24T13:36:58;5.30;;;2.13;;
30647;SDS011;17683;53.360;9.736;2023-03-24T13:39:53;12.32;;;2.67;;
30647;SDS011;17683;53.360;9.736;2023-03-24T13:42:34;8.98;;;2.47;;
30647;SDS011;17683;53.360;9.736;2023-03-24T13:45:16;9.65;;;2.10;;
30647;SDS011;17683;53.360;9.736;2023-03-24T13:50:52;13.53;;;2.60;;
30647;SDS011;17683;53.360;9.736;2023-03-24T13:53:31;11.70;;;2.53;;
30647;SDS011;17683;53.360;9.736;2023-03-24T13:56:02;10.10;;;2.50;;
30647;SDS011;17683;53.360;9.736;2023-03-24T13:59:04;12.60;;;1.95;;
30647;SDS011;17683;53.360;9.736;2023-03-24T14:01:32;11.57;;;2.50;;
30647;SDS011;17683;53.360;9.736;2023-03-24T14:06:50;7.47;;;1.88;;
30647;SDS011;17683;53.360;9.736;2023-03-24T14:09:25;12.30;;;2.70;;
30647;SDS011;17683;53.360;9.736;2023-03-24T14:14:28;6.68;;;2.38;;
30647;SDS011;17683;53.360;9.736;2023-03-24T14:22:12;8.25;;;2.22;;
30647;SDS011;17683;53.360;9.736;2023-03-24T14:32:59;11.45;;;2.83;;
30647;SDS011;17683;53.360;9.736;2023-03-24T14:35:39;10.15;;;2.25;;
30647;SDS011;17683;53.360;9.736;2023-03-24T14:40:40;10.30;;;2.38;;
30647;SDS011;17683;53.360;9.736;2023-03-24T14:43:15;8.07;;;1.90;;
30647;SDS011;17683;53.360;9.736;2023-03-24T14:54:18;11.25;;;2.13;;
30647;SDS011;17683;53.360;9.736;2023-03-24T14:56:48;9.77;;;2.40;;
30647;SDS011;17683;53.360;9.736;2023-03-24T15:00:00;5.28;;;1.80;;
30647;SDS011;17683;53.360;9.736;2023-03-24T15:04:39;9.60;;;2.17;;
30647;SDS011;17683;53.360;9.736;2023-03-24T15:07:05;8.77;;;1.83;;
30647;SDS011;17683;53.360;9.736;2023-03-24T15:09:30;9.57;;;3.05;;
30647;SDS011;17683;53.360;9.736;2023-03-24T15:12:01;8.75;;;2.22;;
30647;SDS011;17683;53.360;9.736;2023-03-24T15:14:28;9.32;;;2.95;;
30647;SDS011;17683;53.360;9.736;2023-03-24T15:16:57;9.00;;;2.50;;
30647;SDS011;17683;53.360;9.736;2023-03-24T15:19:28;11.23;;;3.15;;
30647;SDS011;17683;53.360;9.736;2023-03-24T15:21:56;5.88;;;2.00;;
30647;SDS011;17683;53.360;9.736;2023-03-24T15:24:28;9.60;;;2.42;;
30647;SDS011;17683;53.360;9.736;2023-03-24T15:29:37;9.00;;;2.03;;
30647;SDS011;17683;53.360;9.736;2023-03-24T15:32:05;9.93;;;2.47;;
30647;SDS011;17683;53.360;9.736;2023-03-24T15:34:39;10.82;;;1.98;;
30647;SDS011;17683;53.360;9.736;2023-03-24T15:37:18;11.73;;;2.35;;
30647;SDS011;17683;53.360;9.736;2023-03-24T15:39:58;10.55;;;2.95;;
30647;SDS011;17683;53.360;9.736;2023-03-24T15:42:24;8.18;;;1.88;;
30647;SDS011;17683;53.360;9.736;2023-03-24T15:44:51;9.18;;;2.60;;
30647;SDS011;17683;53.360;9.736;2023-03-24T15:52:29;8.77;;;2.10;;
30647;SDS011;17683;53.360;9.736;2023-03-24T15:55:30;4.35;;;2.00;;
30647;SDS011;17683;53.360;9.736;2023-03-24T15:58:12;7.88;;;1.95;;
30647;SDS011;17683;53.360;9.736;2023-03-24T16:00:47;10.95;;;2.70;;
30647;SDS011;17683;53.360;9.736;2023-03-24T16:03:17;6.07;;;1.60;;
30647;SDS011;17683;53.360;9.736;2023-03-24T16:05:46;11.25;;;2.30;;
30647;SDS011;17683;53.360;9.736;2023-03-24T16:10:59;9.27;;;1.90;;
30647;SDS011;17683;53.360;9.736;2023-03-24T16:13:31;9.43;;;1.90;;
30647;SDS011;17683;53.360;9.736;2023-03-24T16:15:59;8.52;;;1.90;;
30647;SDS011;17683;53.360;9.736;2023-03-24T16:18:35;8.20;;;1.95;;
30647;SDS011;17683;53.360;9.736;2023-03-24T16:21:15;13.35;;;2.30;;
30647;SDS011;17683;53.360;9.736;2023-03-24T16:23:43;10.23;;;2.00;;
30647;SDS011;17683;53.360;9.736;2023-03-24T16:26:17;8.20;;;2.67;;
30647;SDS011;17683;53.360;9.736;2023-03-24T16:28:47;8.73;;;2.63;;
30647;SDS011;17683;53.360;9.736;2023-03-24T16:31:19;3.90;;;1.48;;
30647;SDS011;17683;53.360;9.736;2023-03-24T16:33:50;4.90;;;2.08;;
30647;SDS011;17683;53.360;9.736;2023-03-24T16:36:16;8.50;;;2.05;;
30647;SDS011;17683;53.360;9.736;2023-03-24T16:38:45;9.07;;;2.55;;
30647;SDS011;17683;53.360;9.736;2023-03-24T16:41:13;6.63;;;1.92;;
30647;SDS011;17683;53.360;9.736;2023-03-24T16:43:40;10.80;;;2.30;;
30647;SDS011;17683;53.360;9.736;2023-03-24T16:46:13;6.30;;;2.55;;
30647;SDS011;17683;53.360;9.736;2023-03-24T16:48:40;10.57;;;2.35;;
30647;SDS011;17683;53.360;9.736;2023-03-24T16:51:13;8.57;;;2.20;;
30647;SDS011;17683;53.360;9.736;2023-03-24T16:53:40;4.70;;;2.00;;
30647;SDS011;17683;53.360;9.736;2023-03-24T16:56:08;9.18;;;2.47;;
30647;SDS011;17683;53.360;9.736;2023-03-24T16:58:36;7.32;;;2.30;;
30647;SDS011;17683;53.360;9.736;2023-03-24T17:01:02;5.90;;;2.90;;
30647;SDS011;17683;53.360;9.736;2023-03-24T17:03:38;9.93;;;2.53;;
30647;SDS011;17683;53.360;9.736;2023-03-24T17:06:04;10.15;;;2.50;;
30647;SDS011;17683;53.360;9.736;2023-03-24T17:08:30;8.75;;;2.50;;
30647;SDS011;17683;53.360;9.736;2023-03-24T17:10:56;7.00;;;2.45;;
30647;SDS011;17683;53.360;9.736;2023-03-24T17:13:23;4.53;;;1.70;;
30647;SDS011;17683;53.360;9.736;2023-03-24T17:15:50;6.72;;;1.65;;
30647;SDS011;17683;53.360;9.736;2023-03-24T17:18:16;3.88;;;1.35;;
30647;SDS011;17683;53.360;9.736;2023-03-24T17:20:43;7.43;;;2.20;;
30647;SDS011;17683;53.360;9.736;2023-03-24T17:23:10;3.85;;;1.60;;
30647;SDS011;17683;53.360;9.736;2023-03-24T17:25:38;7.28;;;1.83;;
30647;SDS011;17683;53.360;9.736;2023-03-24T17:28:05;2.92;;;1.70;;
30647;SDS011;17683;53.360;9.736;2023-03-24T17:30:41;4.88;;;1.50;;
30647;SDS011;17683;53.360;9.736;2023-03-24T17:33:13;4.60;;;1.33;;
30647;SDS011;17683;53.360;9.736;2023-03-24T17:35:39;6.35;;;1.65;;
30647;SDS011;17683;53.360;9.736;2023-03-24T17:38:11;5.93;;;1.58;;
30647;SDS011;17683;53.360;9.736;2023-03-24T17:40:38;3.45;;;1.15;;
30647;SDS011;17683;53.360;9.736;2023-03-24T17:43:03;7.40;;;1.60;;
30647;SDS011;17683;53.360;9.736;2023-03-24T17:45:29;3.25;;;1.45;;
30647;SDS011;17683;53.360;9.736;2023-03-24T17:47:55;2.50;;;1.20;;
30647;SDS011;17683;53.360;9.736;2023-03-24T17:50:21;6.35;;;1.35;;
30647;SDS011;17683;53.360;9.736;2023-03-24T17:52:47;4.78;;;0.95;;
30647;SDS011;17683;53.360;9.736;2023-03-24T17:55:13;5.80;;;1.27;;
30647;SDS011;17683;53.360;9.736;2023-03-24T17:57:41;5.80;;;1.30;;
30647;SDS011;17683;53.360;9.736;2023-03-24T18:00:07;4.35;;;1.75;;
30647;SDS011;17683;53.360;9.736;2023-03-24T18:02:36;4.60;;;1.45;;